sensor_id;sensor_type;location;lat;lon;timestamp;temperature;humidity
38860;DHT22;24609;48.316;16.174;2022-12-24T00:01:05;11.10;99.90
38860;DHT22;24609;48.316;16.174;2022-12-24T00:03:32;11.10;99.90
38860;DHT22;24609;48.316;16.174;2022-12-24T00:05:57;11.00;99.90
38860;DHT22;24609;48.316;16.174;2022-12-24T00:08:23;11.00;99.90
38860;DHT22;24609;48.316;16.174;2022-12-24T00:10:52;11.00;99.90
38860;DHT22;24609;48.316;16.174;2022-12-24T00:13:18;11.00;99.90
38860;DHT22;24609;48.316;16.174;2022-12-24T00:15:44;11.00;99.90
38860;DHT22;24609;48.316;16.174;2022-12-24T00:18:10;11.20;99.90
38860;DHT22;24609;48.316;16.174;2022-12-24T00:20:36;11.20;99.90
38860;DHT22;24609;48.316;16.174;2022-12-24T00:23:02;11.00;99.90
38860;DHT22;24609;48.316;16.174;2022-12-24T00:25:27;11.00;99.90
38860;DHT22;24609;48.316;16.174;2022-12-24T00:27:53;11.00;99.90
38860;DHT22;24609;48.316;16.174;2022-12-24T00:30:18;11.00;99.90
38860;DHT22;24609;48.316;16.174;2022-12-24T00:32:44;11.00;99.90
38860;DHT22;24609;48.316;16.174;2022-12-24T00:35:10;11.00;99.90
38860;DHT22;24609;48.316;16.174;2022-12-24T00:37:35;11.00;99.90
38860;DHT22;24609;48.316;16.174;2022-12-24T00:40:01;10.90;99.90
38860;DHT22;24609;48.316;16.174;2022-12-24T00:42:27;10.80;99.90
38860;DHT22;24609;48.316;16.174;2022-12-24T00:44:52;10.90;99.90
38860;DHT22;24609;48.316;16.174;2022-12-24T00:47:18;10.90;99.90
38860;DHT22;24609;48.316;16.174;2022-12-24T00:49:44;10.80;99.90
38860;DHT22;24609;48.316;16.174;2022-12-24T00:52:09;10.80;99.90
38860;DHT22;24609;48.316;16.174;2022-12-24T00:54:35;10.90;99.90
38860;DHT22;24609;48.316;16.174;2022-12-24T00:57:00;11.00;99.90
38860;DHT22;24609;48.316;16.174;2022-12-24T00:59:26;11.00;99.90
38860;DHT22;24609;48.316;16.174;2022-12-24T01:01:52;11.10;99.90
38860;DHT22;24609;48.316;16.174;2022-12-24T01:04:17;11.10;99.90
38860;DHT22;24609;48.316;16.174;2022-12-24T01:07:02;11.00;99.90
38860;DHT22;24609;48.316;16.174;2022-12-24T01:09:27;11.00;99.90
38860;DHT22;24609;48.316;16.174;2022-12-24T01:11:53;11.10;99.90
38860;DHT22;24609;48.316;16.174;2022-12-24T01:14:19;11.10;99.90
38860;DHT22;24609;48.316;16.174;2022-12-24T01:16:45;11.10;99.90
38860;DHT22;24609;48.316;16.174;2022-12-24T01:19:10;11.00;99.90
38860;DHT22;24609;48.316;16.174;2022-12-24T01:21:36;10.90;99.90
38860;DHT22;24609;48.316;16.174;2022-12-24T01:24:02;10.70;99.90
38860;DHT22;24609;48.316;16.174;2022-12-24T01:26:27;10.60;99.90
38860;DHT22;24609;48.316;16.174;2022-12-24T01:28:53;10.70;99.90
38860;DHT22;24609;48.316;16.174;2022-12-24T01:31:19;10.70;99.90
38860;DHT22;24609;48.316;16.174;2022-12-24T01:33:47;10.70;99.90
38860;DHT22;24609;48.316;16.174;2022-12-24T01:36:13;10.80;99.90
38860;DHT22;24609;48.316;16.174;2022-12-24T01:38:39;10.90;99.90
38860;DHT22;24609;48.316;16.174;2022-12-24T01:41:05;11.00;99.90
38860;DHT22;24609;48.316;16.174;2022-12-24T01:43:49;11.10;99.90
38860;DHT22;24609;48.316;16.174;2022-12-24T01:46:24;11.20;99.90
38860;DHT22;24609;48.316;16.174;2022-12-24T01:48:55;11.10;99.90
38860;DHT22;24609;48.316;16.174;2022-12-24T01:51:41;11.20;99.90
38860;DHT22;24609;48.316;16.174;2022-12-24T01:54:15;11.30;99.90
38860;DHT22;24609;48.316;16.174;2022-12-24T01:56:52;11.40;99.90
38860;DHT22;24609;48.316;16.174;2022-12-24T01:59:20;11.20;99.90
38860;DHT22;24609;48.316;16.174;2022-12-24T02:01:47;11.20;99.90
38860;DHT22;24609;48.316;16.174;2022-12-24T02:04:33;11.10;99.90
38860;DHT22;24609;48.316;16.174;2022-12-24T02:07:00;11.20;99.90
38860;DHT22;24609;48.316;16.174;2022-12-24T02:09:26;11.10;99.90
38860;DHT22;24609;48.316;16.174;2022-12-24T02:11:52;11.10;99.90
38860;DHT22;24609;48.316;16.174;2022-12-24T02:14:21;11.20;99.90
38860;DHT22;24609;48.316;16.174;2022-12-24T02:25:32;11.00;99.90
38860;DHT22;24609;48.316;16.174;2022-12-24T02:30:58;10.80;99.90
38860;DHT22;24609;48.316;16.174;2022-12-24T02:33:28;11.00;99.90
38860;DHT22;24609;48.316;16.174;2022-12-24T02:38:48;10.90;99.90
38860;DHT22;24609;48.316;16.174;2022-12-24T02:41:23;10.90;99.90
38860;DHT22;24609;48.316;16.174;2022-12-24T02:43:52;11.00;99.90
38860;DHT22;24609;48.316;16.174;2022-12-24T02:46:22;11.00;99.90
38860;DHT22;24609;48.316;16.174;2022-12-24T02:48:49;10.90;99.90
38860;DHT22;24609;48.316;16.174;2022-12-24T02:51:16;10.90;99.90
38860;DHT22;24609;48.316;16.174;2022-12-24T02:53:45;10.80;99.90
38860;DHT22;24609;48.316;16.174;2022-12-24T03:06:59;10.70;99.90
38860;DHT22;24609;48.316;16.174;2022-12-24T03:09:50;10.70;99.90
38860;DHT22;24609;48.316;16.174;2022-12-24T03:12:26;10.60;99.90
38860;DHT22;24609;48.316;16.174;2022-12-24T03:14:53;10.70;99.90
38860;DHT22;24609;48.316;16.174;2022-12-24T03:17:20;10.70;99.90
38860;DHT22;24609;48.316;16.174;2022-12-24T03:19:46;10.70;99.90
38860;DHT22;24609;48.316;16.174;2022-12-24T03:22:12;10.70;99.90
38860;DHT22;24609;48.316;16.174;2022-12-24T03:24:39;10.80;99.90
38860;DHT22;24609;48.316;16.174;2022-12-24T03:27:08;10.70;99.90
38860;DHT22;24609;48.316;16.174;2022-12-24T03:29:33;10.60;99.90
38860;DHT22;24609;48.316;16.174;2022-12-24T03:32:01;10.60;99.90
38860;DHT22;24609;48.316;16.174;2022-12-24T03:34:28;10.70;99.90
38860;DHT22;24609;48.316;16.174;2022-12-24T03:36:54;10.70;99.90
38860;DHT22;24609;48.316;16.174;2022-12-24T03:39:20;10.70;99.90
38860;DHT22;24609;48.316;16.174;2022-12-24T03:41:46;10.70;99.90
38860;DHT22;24609;48.316;16.174;2022-12-24T03:44:12;10.60;99.90
38860;DHT22;24609;48.316;16.174;2022-12-24T03:46:38;10.50;99.90
38860;DHT22;24609;48.316;16.174;2022-12-24T03:49:04;10.50;99.90
38860;DHT22;24609;48.316;16.174;2022-12-24T03:51:29;10.50;99.90
38860;DHT22;24609;48.316;16.174;2022-12-24T03:53:57;10.60;99.90
38860;DHT22;24609;48.316;16.174;2022-12-24T03:56:23;10.60;99.90
38860;DHT22;24609;48.316;16.174;2022-12-24T03:58:49;10.60;99.90
38860;DHT22;24609;48.316;16.174;2022-12-24T04:01:16;10.50;99.90
38860;DHT22;24609;48.316;16.174;2022-12-24T04:03:42;10.50;99.90
38860;DHT22;24609;48.316;16.174;2022-12-24T04:06:13;10.50;99.90
38860;DHT22;24609;48.316;16.174;2022-12-24T04:08:40;10.40;99.90
38860;DHT22;24609;48.316;16.174;2022-12-24T04:11:10;10.40;99.90
38860;DHT22;24609;48.316;16.174;2022-12-24T04:13:36;10.40;99.90
38860;DHT22;24609;48.316;16.174;2022-12-24T04:16:07;10.30;99.90
38860;DHT22;24609;48.316;16.174;2022-12-24T04:18:34;10.40;99.90
38860;DHT22;24609;48.316;16.174;2022-12-24T04:21:00;10.50;99.90
38860;DHT22;24609;48.316;16.174;2022-12-24T04:23:26;10.40;99.90
38860;DHT22;24609;48.316;16.174;2022-12-24T04:25:54;10.20;99.90
38860;DHT22;24609;48.316;16.174;2022-12-24T04:28:19;10.10;99.90
38860;DHT22;24609;48.316;16.174;2022-12-24T04:30:45;10.10;99.90
38860;DHT22;24609;48.316;16.174;2022-12-24T04:33:11;10.10;99.90
38860;DHT22;24609;48.316;16.174;2022-12-24T04:35:40;10.10;99.90
38860;DHT22;24609;48.316;16.174;2022-12-24T04:38:07;10.10;99.90
38860;DHT22;24609;48.316;16.174;2022-12-24T04:40:33;10.20;99.90
38860;DHT22;24609;48.316;16.174;2022-12-24T04:42:59;10.30;99.90
38860;DHT22;24609;48.316;16.174;2022-12-24T04:45:24;10.50;99.90
38860;DHT22;24609;48.316;16.174;2022-12-24T04:47:50;10.50;99.90
38860;DHT22;24609;48.316;16.174;2022-12-24T04:50:16;10.60;99.90
38860;DHT22;24609;48.316;16.174;2022-12-24T04:52:41;10.60;99.90
38860;DHT22;24609;48.316;16.174;2022-12-24T04:55:07;10.60;99.90
38860;DHT22;24609;48.316;16.174;2022-12-24T04:57:33;10.50;99.90
38860;DHT22;24609;48.316;16.174;2022-12-24T05:00:01;10.30;99.90
38860;DHT22;24609;48.316;16.174;2022-12-24T05:02:26;10.10;99.90
38860;DHT22;24609;48.316;16.174;2022-12-24T05:04:52;10.00;99.90
38860;DHT22;24609;48.316;16.174;2022-12-24T05:07:18;9.90;99.90
38860;DHT22;24609;48.316;16.174;2022-12-24T05:09:43;9.90;99.90
38860;DHT22;24609;48.316;16.174;2022-12-24T05:12:09;9.90;99.90
38860;DHT22;24609;48.316;16.174;2022-12-24T05:14:35;9.90;99.90
38860;DHT22;24609;48.316;16.174;2022-12-24T05:17:00;9.90;99.90
38860;DHT22;24609;48.316;16.174;2022-12-24T05:19:26;10.00;99.90
38860;DHT22;24609;48.316;16.174;2022-12-24T05:21:52;10.00;99.90
38860;DHT22;24609;48.316;16.174;2022-12-24T05:24:36;10.00;99.90
38860;DHT22;24609;48.316;16.174;2022-12-24T05:27:20;10.00;99.90
38860;DHT22;24609;48.316;16.174;2022-12-24T05:29:46;10.00;99.90
38860;DHT22;24609;48.316;16.174;2022-12-24T05:32:12;10.10;99.90
38860;DHT22;24609;48.316;16.174;2022-12-24T05:34:37;10.10;99.90
38860;DHT22;24609;48.316;16.174;2022-12-24T05:37:03;10.10;99.90
38860;DHT22;24609;48.316;16.174;2022-12-24T05:39:29;10.00;99.90
38860;DHT22;24609;48.316;16.174;2022-12-24T05:41:54;10.00;99.90
38860;DHT22;24609;48.316;16.174;2022-12-24T05:44:20;10.00;99.90
38860;DHT22;24609;48.316;16.174;2022-12-24T05:46:46;10.00;99.90
38860;DHT22;24609;48.316;16.174;2022-12-24T05:49:12;10.00;99.90
38860;DHT22;24609;48.316;16.174;2022-12-24T05:51:38;10.10;99.90
38860;DHT22;24609;48.316;16.174;2022-12-24T05:54:05;10.00;99.90
38860;DHT22;24609;48.316;16.174;2022-12-24T05:56:31;10.10;99.90
38860;DHT22;24609;48.316;16.174;2022-12-24T05:58:57;10.10;99.90
38860;DHT22;24609;48.316;16.174;2022-12-24T06:01:23;10.20;99.90
38860;DHT22;24609;48.316;16.174;2022-12-24T06:03:50;10.10;99.90
38860;DHT22;24609;48.316;16.174;2022-12-24T06:06:21;10.00;99.90
38860;DHT22;24609;48.316;16.174;2022-12-24T06:08:48;10.00;99.90
38860;DHT22;24609;48.316;16.174;2022-12-24T06:11:16;10.10;99.90
38860;DHT22;24609;48.316;16.174;2022-12-24T06:13:42;10.10;99.90
38860;DHT22;24609;48.316;16.174;2022-12-24T06:16:11;10.20;99.90
38860;DHT22;24609;48.316;16.174;2022-12-24T06:18:37;10.30;99.90
38860;DHT22;24609;48.316;16.174;2022-12-24T06:21:04;10.20;99.90
38860;DHT22;24609;48.316;16.174;2022-12-24T06:23:31;10.30;99.90
38860;DHT22;24609;48.316;16.174;2022-12-24T06:25:58;10.30;99.90
38860;DHT22;24609;48.316;16.174;2022-12-24T06:28:28;10.20;99.90
38860;DHT22;24609;48.316;16.174;2022-12-24T06:30:54;10.20;99.90
38860;DHT22;24609;48.316;16.174;2022-12-24T06:33:20;10.20;99.90
38860;DHT22;24609;48.316;16.174;2022-12-24T06:35:46;10.20;99.90
38860;DHT22;24609;48.316;16.174;2022-12-24T06:38:13;10.20;99.90
38860;DHT22;24609;48.316;16.174;2022-12-24T06:40:40;10.00;99.90
38860;DHT22;24609;48.316;16.174;2022-12-24T06:43:06;10.00;99.90
38860;DHT22;24609;48.316;16.174;2022-12-24T06:45:32;9.90;99.90
38860;DHT22;24609;48.316;16.174;2022-12-24T06:47:58;9.80;99.90
38860;DHT22;24609;48.316;16.174;2022-12-24T06:50:24;9.70;99.90
38860;DHT22;24609;48.316;16.174;2022-12-24T06:52:50;9.70;99.90
38860;DHT22;24609;48.316;16.174;2022-12-24T06:55:16;9.70;99.90
38860;DHT22;24609;48.316;16.174;2022-12-24T06:57:41;9.70;99.90
38860;DHT22;24609;48.316;16.174;2022-12-24T07:00:09;9.70;99.90
38860;DHT22;24609;48.316;16.174;2022-12-24T07:02:42;9.70;99.90
38860;DHT22;24609;48.316;16.174;2022-12-24T07:05:09;9.70;99.90
38860;DHT22;24609;48.316;16.174;2022-12-24T07:07:40;9.70;99.90
38860;DHT22;24609;48.316;16.174;2022-12-24T07:10:07;9.70;99.90
38860;DHT22;24609;48.316;16.174;2022-12-24T07:12:34;9.70;99.90
38860;DHT22;24609;48.316;16.174;2022-12-24T07:15:03;9.70;99.90
38860;DHT22;24609;48.316;16.174;2022-12-24T07:17:28;9.70;99.90
38860;DHT22;24609;48.316;16.174;2022-12-24T07:19:54;9.70;99.90
38860;DHT22;24609;48.316;16.174;2022-12-24T07:22:20;9.80;99.90
38860;DHT22;24609;48.316;16.174;2022-12-24T07:24:45;9.90;99.90
38860;DHT22;24609;48.316;16.174;2022-12-24T07:27:11;9.90;99.90
38860;DHT22;24609;48.316;16.174;2022-12-24T07:29:37;9.80;99.90
38860;DHT22;24609;48.316;16.174;2022-12-24T07:32:03;9.80;99.90
38860;DHT22;24609;48.316;16.174;2022-12-24T07:34:28;9.70;99.90
38860;DHT22;24609;48.316;16.174;2022-12-24T07:36:54;9.70;99.90
38860;DHT22;24609;48.316;16.174;2022-12-24T07:39:20;9.70;99.90
38860;DHT22;24609;48.316;16.174;2022-12-24T07:41:45;9.70;99.90
38860;DHT22;24609;48.316;16.174;2022-12-24T07:44:14;9.80;99.90
38860;DHT22;24609;48.316;16.174;2022-12-24T07:46:40;9.80;99.90
38860;DHT22;24609;48.316;16.174;2022-12-24T07:49:06;9.90;99.90
38860;DHT22;24609;48.316;16.174;2022-12-24T07:51:32;10.30;99.90
38860;DHT22;24609;48.316;16.174;2022-12-24T07:53:58;10.50;99.90
38860;DHT22;24609;48.316;16.174;2022-12-24T07:56:24;10.50;99.70
38860;DHT22;24609;48.316;16.174;2022-12-24T07:58:50;10.60;63.70
38860;DHT22;24609;48.316;16.174;2022-12-24T08:01:17;10.60;92.50
38860;DHT22;24609;48.316;16.174;2022-12-24T08:03:43;10.80;66.00
38860;DHT22;24609;48.316;16.174;2022-12-24T08:06:09;10.80;1.20
38860;DHT22;24609;48.316;16.174;2022-12-24T08:08:35;10.80;25.80
38860;DHT22;24609;48.316;16.174;2022-12-24T08:11:05;10.80;28.00
38860;DHT22;24609;48.316;16.174;2022-12-24T08:13:31;10.80;63.90
38860;DHT22;24609;48.316;16.174;2022-12-24T08:15:57;10.60;98.20
38860;DHT22;24609;48.316;16.174;2022-12-24T08:18:24;10.60;99.90
38860;DHT22;24609;48.316;16.174;2022-12-24T08:20:50;10.40;99.90
38860;DHT22;24609;48.316;16.174;2022-12-24T08:23:16;10.60;99.90
38860;DHT22;24609;48.316;16.174;2022-12-24T08:25:43;11.00;63.60
38860;DHT22;24609;48.316;16.174;2022-12-24T08:28:09;10.80;99.90
38860;DHT22;24609;48.316;16.174;2022-12-24T08:30:35;11.00;99.90
38860;DHT22;24609;48.316;16.174;2022-12-24T08:33:01;11.70;1.00
38860;DHT22;24609;48.316;16.174;2022-12-24T08:35:27;12.30;1.00
38860;DHT22;24609;48.316;16.174;2022-12-24T08:37:53;12.50;99.90
38860;DHT22;24609;48.316;16.174;2022-12-24T08:40:18;12.60;1.00
38860;DHT22;24609;48.316;16.174;2022-12-24T08:42:44;12.80;99.90
38860;DHT22;24609;48.316;16.174;2022-12-24T08:45:10;13.00;99.90
38860;DHT22;24609;48.316;16.174;2022-12-24T08:47:37;13.20;1.00
38860;DHT22;24609;48.316;16.174;2022-12-24T08:50:04;13.20;1.00
38860;DHT22;24609;48.316;16.174;2022-12-24T08:52:30;12.30;1.00
38860;DHT22;24609;48.316;16.174;2022-12-24T08:54:55;11.90;86.90
38860;DHT22;24609;48.316;16.174;2022-12-24T08:57:21;12.00;1.00
38860;DHT22;24609;48.316;16.174;2022-12-24T08:59:47;12.30;99.90
38860;DHT22;24609;48.316;16.174;2022-12-24T09:02:13;12.60;99.90
38860;DHT22;24609;48.316;16.174;2022-12-24T09:04:38;12.70;99.90
38860;DHT22;24609;48.316;16.174;2022-12-24T09:07:05;13.10;99.90
38860;DHT22;24609;48.316;16.174;2022-12-24T09:09:31;13.90;99.90
38860;DHT22;24609;48.316;16.174;2022-12-24T09:11:57;13.80;99.90
38860;DHT22;24609;48.316;16.174;2022-12-24T09:14:22;13.70;99.90
38860;DHT22;24609;48.316;16.174;2022-12-24T09:16:48;14.20;1.00
38860;DHT22;24609;48.316;16.174;2022-12-24T09:19:13;13.70;48.60
38860;DHT22;24609;48.316;16.174;2022-12-24T09:21:39;13.10;99.90
38860;DHT22;24609;48.316;16.174;2022-12-24T09:24:05;13.50;99.90
38860;DHT22;24609;48.316;16.174;2022-12-24T09:26:30;14.20;1.00
38860;DHT22;24609;48.316;16.174;2022-12-24T09:28:58;14.10;99.90
38860;DHT22;24609;48.316;16.174;2022-12-24T09:31:25;14.00;99.90
38860;DHT22;24609;48.316;16.174;2022-12-24T09:33:51;14.00;99.90
38860;DHT22;24609;48.316;16.174;2022-12-24T09:36:18;14.80;86.10
38860;DHT22;24609;48.316;16.174;2022-12-24T09:38:44;14.80;1.00
38860;DHT22;24609;48.316;16.174;2022-12-24T09:41:40;14.50;1.00
38860;DHT22;24609;48.316;16.174;2022-12-24T09:49:47;15.00;99.90
38860;DHT22;24609;48.316;16.174;2022-12-24T09:52:38;14.70;99.90
38860;DHT22;24609;48.316;16.174;2022-12-24T09:57:41;15.40;83.30
38860;DHT22;24609;48.316;16.174;2022-12-24T10:00:37;16.30;1.00
38860;DHT22;24609;48.316;16.174;2022-12-24T10:03:15;15.20;1.00
38860;DHT22;24609;48.316;16.174;2022-12-24T10:06:03;14.70;1.00
38860;DHT22;24609;48.316;16.174;2022-12-24T10:09:10;15.20;99.90
38860;DHT22;24609;48.316;16.174;2022-12-24T10:22:24;16.40;99.90
38860;DHT22;24609;48.316;16.174;2022-12-24T10:28:21;16.30;99.90
38860;DHT22;24609;48.316;16.174;2022-12-24T10:30:50;14.90;99.90
38860;DHT22;24609;48.316;16.174;2022-12-24T10:33:28;14.50;1.00
38860;DHT22;24609;48.316;16.174;2022-12-24T10:35:56;15.20;99.90
38860;DHT22;24609;48.316;16.174;2022-12-24T10:38:23;15.80;99.90
38860;DHT22;24609;48.316;16.174;2022-12-24T10:40:54;16.30;99.90
38860;DHT22;24609;48.316;16.174;2022-12-24T10:43:23;14.40;99.90
38860;DHT22;24609;48.316;16.174;2022-12-24T10:46:02;14.00;1.00
38860;DHT22;24609;48.316;16.174;2022-12-24T10:49:23;14.20;1.20
38860;DHT22;24609;48.316;16.174;2022-12-24T10:51:39;16.30;99.90
38860;DHT22;24609;48.316;16.174;2022-12-24T10:56:44;14.30;1.00
38860;DHT22;24609;48.316;16.174;2022-12-24T11:01:51;14.10;99.90
38860;DHT22;24609;48.316;16.174;2022-12-24T11:04:20;14.10;94.80
38860;DHT22;24609;48.316;16.174;2022-12-24T11:07:04;14.10;22.60
38860;DHT22;24609;48.316;16.174;2022-12-24T11:09:37;14.20;1.00
38860;DHT22;24609;48.316;16.174;2022-12-24T11:12:15;14.30;4.90
38860;DHT22;24609;48.316;16.174;2022-12-24T11:14:42;14.70;1.00
38860;DHT22;24609;48.316;16.174;2022-12-24T11:17:19;14.70;1.00
38860;DHT22;24609;48.316;16.174;2022-12-24T11:19:48;14.30;1.00
38860;DHT22;24609;48.316;16.174;2022-12-24T11:22:28;14.70;1.00
38860;DHT22;24609;48.316;16.174;2022-12-24T11:25:05;15.30;1.00
38860;DHT22;24609;48.316;16.174;2022-12-24T11:32:43;14.30;1.00
38860;DHT22;24609;48.316;16.174;2022-12-24T11:35:30;14.30;1.00
38860;DHT22;24609;48.316;16.174;2022-12-24T11:40:24;16.70;99.90
38860;DHT22;24609;48.316;16.174;2022-12-24T11:42:59;15.50;99.90
38860;DHT22;24609;48.316;16.174;2022-12-24T11:45:27;14.70;99.90
38860;DHT22;24609;48.316;16.174;2022-12-24T11:47:54;13.90;99.90
38860;DHT22;24609;48.316;16.174;2022-12-24T11:50:40;13.70;99.90
38860;DHT22;24609;48.316;16.174;2022-12-24T11:53:19;13.30;99.90
38860;DHT22;24609;48.316;16.174;2022-12-24T11:55:52;13.10;99.90
38860;DHT22;24609;48.316;16.174;2022-12-24T12:00:50;12.80;99.90
38860;DHT22;24609;48.316;16.174;2022-12-24T12:03:32;13.00;99.90
38860;DHT22;24609;48.316;16.174;2022-12-24T12:06:02;13.10;1.00
38860;DHT22;24609;48.316;16.174;2022-12-24T12:08:32;13.10;1.00
38860;DHT22;24609;48.316;16.174;2022-12-24T12:11:11;13.10;99.90
38860;DHT22;24609;48.316;16.174;2022-12-24T12:13:41;13.20;1.00
38860;DHT22;24609;48.316;16.174;2022-12-24T12:18:58;12.90;1.00
38860;DHT22;24609;48.316;16.174;2022-12-24T12:21:31;12.70;99.90
38860;DHT22;24609;48.316;16.174;2022-12-24T12:24:03;12.50;99.90
38860;DHT22;24609;48.316;16.174;2022-12-24T12:26:31;12.60;99.90
38860;DHT22;24609;48.316;16.174;2022-12-24T12:31:55;12.50;99.90
38860;DHT22;24609;48.316;16.174;2022-12-24T12:34:36;12.10;99.90
38860;DHT22;24609;48.316;16.174;2022-12-24T12:39:54;12.00;1.00
38860;DHT22;24609;48.316;16.174;2022-12-24T12:42:33;12.10;91.00
38860;DHT22;24609;48.316;16.174;2022-12-24T12:58:30;12.80;99.90
38860;DHT22;24609;48.316;16.174;2022-12-24T13:01:05;12.70;99.90
38860;DHT22;24609;48.316;16.174;2022-12-24T13:06:32;12.40;99.90
38860;DHT22;24609;48.316;16.174;2022-12-24T13:18:47;11.70;99.90
38860;DHT22;24609;48.316;16.174;2022-12-24T13:20:51;11.70;99.90
38860;DHT22;24609;48.316;16.174;2022-12-24T13:23:20;11.70;99.90
38860;DHT22;24609;48.316;16.174;2022-12-24T13:25:49;11.70;99.90
38860;DHT22;24609;48.316;16.174;2022-12-24T13:28:29;11.50;99.90
38860;DHT22;24609;48.316;16.174;2022-12-24T13:33:57;11.50;1.00
38860;DHT22;24609;48.316;16.174;2022-12-24T13:36:24;11.50;1.00
38860;DHT22;24609;48.316;16.174;2022-12-24T13:38:57;11.50;1.00
38860;DHT22;24609;48.316;16.174;2022-12-24T13:49:39;11.40;99.90
38860;DHT22;24609;48.316;16.174;2022-12-24T13:54:40;11.50;1.00
38860;DHT22;24609;48.316;16.174;2022-12-24T14:05:38;11.00;4.20
38860;DHT22;24609;48.316;16.174;2022-12-24T14:08:08;11.00;99.90
38860;DHT22;24609;48.316;16.174;2022-12-24T14:10:39;10.90;99.90
38860;DHT22;24609;48.316;16.174;2022-12-24T14:13:05;10.80;99.90
38860;DHT22;24609;48.316;16.174;2022-12-24T14:16:00;10.70;99.90
38860;DHT22;24609;48.316;16.174;2022-12-24T14:18:27;10.80;99.90
38860;DHT22;24609;48.316;16.174;2022-12-24T14:20:56;10.60;99.90
38860;DHT22;24609;48.316;16.174;2022-12-24T14:23:56;10.40;99.90
38860;DHT22;24609;48.316;16.174;2022-12-24T14:26:24;10.30;99.90
38860;DHT22;24609;48.316;16.174;2022-12-24T14:29:01;10.10;1.00
38860;DHT22;24609;48.316;16.174;2022-12-24T14:31:28;10.10;1.00
38860;DHT22;24609;48.316;16.174;2022-12-24T14:34:10;10.00;1.00
38860;DHT22;24609;48.316;16.174;2022-12-24T14:36:37;10.00;1.00
38860;DHT22;24609;48.316;16.174;2022-12-24T14:39:05;9.90;1.00
38860;DHT22;24609;48.316;16.174;2022-12-24T14:46:40;9.70;1.00
38860;DHT22;24609;48.316;16.174;2022-12-24T14:49:29;9.80;1.00
38860;DHT22;24609;48.316;16.174;2022-12-24T14:54:43;9.60;1.00
38860;DHT22;24609;48.316;16.174;2022-12-24T14:59:47;9.60;1.00
38860;DHT22;24609;48.316;16.174;2022-12-24T15:05:23;9.50;1.00
38860;DHT22;24609;48.316;16.174;2022-12-24T15:07:59;9.40;1.00
38860;DHT22;24609;48.316;16.174;2022-12-24T15:12:55;9.30;1.00
38860;DHT22;24609;48.316;16.174;2022-12-24T15:15:22;9.40;1.00
38860;DHT22;24609;48.316;16.174;2022-12-24T15:17:48;9.40;1.00
38860;DHT22;24609;48.316;16.174;2022-12-24T15:20:17;9.40;1.00
38860;DHT22;24609;48.316;16.174;2022-12-24T15:22:45;9.40;1.00
38860;DHT22;24609;48.316;16.174;2022-12-24T15:25:30;9.30;1.00
38860;DHT22;24609;48.316;16.174;2022-12-24T15:27:56;9.20;1.00
38860;DHT22;24609;48.316;16.174;2022-12-24T15:30:25;9.10;10.70
38860;DHT22;24609;48.316;16.174;2022-12-24T15:32:55;9.00;46.50
38860;DHT22;24609;48.316;16.174;2022-12-24T15:35:57;8.90;99.90
38860;DHT22;24609;48.316;16.174;2022-12-24T15:38:36;8.70;99.90
38860;DHT22;24609;48.316;16.174;2022-12-24T15:41:20;8.70;99.90
38860;DHT22;24609;48.316;16.174;2022-12-24T15:43:48;8.60;99.90
38860;DHT22;24609;48.316;16.174;2022-12-24T15:46:23;8.50;99.90
38860;DHT22;24609;48.316;16.174;2022-12-24T15:48:52;8.50;99.90
38860;DHT22;24609;48.316;16.174;2022-12-24T15:51:35;8.60;99.90
38860;DHT22;24609;48.316;16.174;2022-12-24T15:54:07;8.70;99.90
38860;DHT22;24609;48.316;16.174;2022-12-24T15:56:43;8.90;99.90
38860;DHT22;24609;48.316;16.174;2022-12-24T15:59:49;9.00;25.60
38860;DHT22;24609;48.316;16.174;2022-12-24T16:02:40;9.10;3.20
38860;DHT22;24609;48.316;16.174;2022-12-24T16:05:29;9.10;34.50
38860;DHT22;24609;48.316;16.174;2022-12-24T16:10:38;9.20;1.30
38860;DHT22;24609;48.316;16.174;2022-12-24T16:13:35;9.30;1.00
38860;DHT22;24609;48.316;16.174;2022-12-24T16:16:08;9.40;1.00
38860;DHT22;24609;48.316;16.174;2022-12-24T16:18:45;9.40;1.00
38860;DHT22;24609;48.316;16.174;2022-12-24T16:21:25;9.40;1.00
38860;DHT22;24609;48.316;16.174;2022-12-24T16:23:55;9.40;1.00
38860;DHT22;24609;48.316;16.174;2022-12-24T16:26:21;9.40;1.00
38860;DHT22;24609;48.316;16.174;2022-12-24T16:28:47;9.40;1.00
38860;DHT22;24609;48.316;16.174;2022-12-24T16:31:29;9.50;1.00
38860;DHT22;24609;48.316;16.174;2022-12-24T16:33:58;9.40;1.00
38860;DHT22;24609;48.316;16.174;2022-12-24T16:36:23;9.40;1.00
38860;DHT22;24609;48.316;16.174;2022-12-24T16:38:49;9.30;1.00
38860;DHT22;24609;48.316;16.174;2022-12-24T16:41:51;9.20;23.60
38860;DHT22;24609;48.316;16.174;2022-12-24T16:44:35;9.10;66.90
38860;DHT22;24609;48.316;16.174;2022-12-24T16:47:03;9.10;86.80
38860;DHT22;24609;48.316;16.174;2022-12-24T16:49:30;9.20;75.60
38860;DHT22;24609;48.316;16.174;2022-12-24T16:51:56;9.20;59.70
38860;DHT22;24609;48.316;16.174;2022-12-24T16:54:21;9.20;63.30
38860;DHT22;24609;48.316;16.174;2022-12-24T16:56:47;9.20;78.90
38860;DHT22;24609;48.316;16.174;2022-12-24T16:59:17;9.20;96.30
38860;DHT22;24609;48.316;16.174;2022-12-24T17:01:44;9.10;99.90
38860;DHT22;24609;48.316;16.174;2022-12-24T17:04:09;8.90;99.90
38860;DHT22;24609;48.316;16.174;2022-12-24T17:06:35;8.80;99.90
38860;DHT22;24609;48.316;16.174;2022-12-24T17:09:01;8.80;99.90
38860;DHT22;24609;48.316;16.174;2022-12-24T17:11:27;8.90;99.90
38860;DHT22;24609;48.316;16.174;2022-12-24T17:13:52;8.90;99.90
38860;DHT22;24609;48.316;16.174;2022-12-24T17:16:18;9.00;99.90
38860;DHT22;24609;48.316;16.174;2022-12-24T17:18:43;9.10;86.40
38860;DHT22;24609;48.316;16.174;2022-12-24T17:21:09;9.20;55.80
38860;DHT22;24609;48.316;16.174;2022-12-24T17:23:35;9.20;28.80
38860;DHT22;24609;48.316;16.174;2022-12-24T17:26:01;9.20;20.40
38860;DHT22;24609;48.316;16.174;2022-12-24T17:28:27;9.20;1.00
38860;DHT22;24609;48.316;16.174;2022-12-24T17:30:52;9.30;1.00
38860;DHT22;24609;48.316;16.174;2022-12-24T17:33:18;9.20;1.90
38860;DHT22;24609;48.316;16.174;2022-12-24T17:35:43;9.10;42.90
38860;DHT22;24609;48.316;16.174;2022-12-24T17:38:12;9.10;63.00
38860;DHT22;24609;48.316;16.174;2022-12-24T17:40:38;9.00;99.00
38860;DHT22;24609;48.316;16.174;2022-12-24T17:43:04;9.00;99.90
38860;DHT22;24609;48.316;16.174;2022-12-24T17:45:30;9.00;99.90
38860;DHT22;24609;48.316;16.174;2022-12-24T17:47:55;9.00;99.90
38860;DHT22;24609;48.316;16.174;2022-12-24T17:50:21;9.00;99.90
38860;DHT22;24609;48.316;16.174;2022-12-24T17:52:46;8.90;99.90
38860;DHT22;24609;48.316;16.174;2022-12-24T17:55:12;8.70;99.90